createdAt,value
2019-03-13T00:01:29.258Z,26.57
2019-03-13T00:04:02.346Z,19.23
2019-03-13T00:06:35.562Z,20.97
2019-03-13T00:09:13.121Z,18.77
2019-03-13T00:11:46.035Z,19.17
2019-03-13T00:14:20.174Z,21.40
2019-03-13T00:16:54.247Z,20.30
2019-03-13T00:19:27.212Z,21.87
2019-03-13T00:22:00.134Z,23.40
2019-03-13T00:24:33.224Z,24.27
2019-03-13T00:27:06.036Z,22.37
2019-03-13T00:29:40.113Z,20.17
2019-03-13T00:32:14.417Z,19.97
2019-03-13T00:34:47.279Z,24.13
2019-03-13T00:37:20.126Z,18.00
2019-03-13T00:39:52.953Z,18.87
2019-03-13T00:42:25.903Z,21.83
2019-03-13T00:44:58.706Z,17.20
2019-03-13T00:47:31.655Z,20.67
2019-03-13T00:50:04.472Z,19.43
2019-03-13T00:52:37.253Z,20.27
2019-03-13T00:55:10.086Z,18.77
2019-03-13T00:57:42.820Z,16.70
2019-03-13T01:00:21.085Z,18.40
2019-03-13T01:02:54.385Z,16.50
2019-03-13T01:05:32.645Z,14.63
2019-03-13T01:08:05.522Z,19.10
2019-03-13T01:10:38.386Z,18.40
2019-03-13T01:13:11.205Z,16.93
2019-03-13T01:15:44.043Z,16.67
2019-03-13T01:18:16.844Z,16.23
2019-03-13T01:20:49.696Z,15.70
2019-03-13T01:23:22.647Z,15.13
2019-03-13T01:25:55.533Z,17.13
2019-03-13T01:28:28.557Z,15.67
2019-03-13T01:31:35.468Z,13.67
2019-03-13T01:34:26.023Z,16.20
2019-03-13T01:36:58.920Z,16.20
2019-03-13T01:39:31.799Z,14.87
2019-03-13T01:42:04.545Z,14.63
2019-03-13T01:44:40.458Z,15.53
2019-03-13T01:47:11.853Z,15.30
2019-03-13T01:49:44.676Z,19.87
2019-03-13T01:52:17.808Z,16.23
2019-03-13T01:54:50.638Z,14.00
2019-03-13T01:57:23.463Z,13.80
2019-03-13T01:59:56.396Z,14.33
2019-03-13T02:02:29.310Z,15.77
2019-03-13T02:05:02.151Z,18.80
2019-03-13T02:07:35.066Z,18.43
2019-03-13T02:10:08.895Z,16.77
2019-03-13T02:12:43.998Z,14.07
2019-03-13T02:15:21.196Z,18.53
2019-03-13T02:17:54.367Z,13.50
2019-03-13T02:20:27.450Z,15.37
2019-03-13T02:23:00.441Z,15.83
2019-03-13T02:25:33.269Z,15.87
2019-03-13T02:28:06.130Z,15.17
2019-03-13T02:30:38.941Z,15.33
2019-03-13T02:33:11.730Z,16.60
2019-03-13T02:35:44.572Z,12.77
2019-03-13T02:38:17.458Z,14.83
2019-03-13T02:40:50.508Z,17.47
2019-03-13T02:43:23.332Z,13.23
2019-03-13T02:45:56.180Z,16.03
2019-03-13T02:48:29.057Z,16.70
2019-03-13T02:51:01.956Z,13.53
2019-03-13T02:53:34.736Z,11.53
2019-03-13T02:56:07.623Z,13.73
2019-03-13T02:58:40.521Z,13.53
2019-03-13T03:01:20.883Z,17.37
2019-03-13T03:03:55.773Z,16.93
2019-03-13T03:06:28.572Z,20.23
2019-03-13T03:09:01.422Z,18.90
2019-03-13T03:11:35.759Z,15.97
2019-03-13T03:14:09.483Z,16.87
2019-03-13T03:16:42.317Z,14.23
2019-03-13T03:19:15.141Z,14.33
2019-03-13T03:21:47.942Z,18.83
2019-03-13T03:24:20.771Z,18.07
2019-03-13T03:26:53.700Z,14.73
2019-03-13T03:29:26.605Z,15.40
2019-03-13T03:31:59.504Z,16.00
2019-03-13T03:34:32.350Z,16.57
2019-03-13T03:37:05.174Z,12.97
2019-03-13T03:39:37.970Z,13.37
2019-03-13T03:42:11.177Z,12.17
2019-03-13T03:44:43.931Z,13.67
2019-03-13T03:47:16.771Z,13.40
2019-03-13T03:49:49.493Z,17.77
2019-03-13T03:52:22.299Z,12.70
2019-03-13T03:54:55.102Z,9.97
2019-03-13T03:57:27.838Z,11.93
2019-03-13T04:00:00.658Z,9.43
2019-03-13T04:02:33.561Z,8.77
2019-03-13T04:05:06.797Z,11.00
2019-03-13T04:07:39.572Z,8.83
2019-03-13T04:10:12.748Z,10.77
2019-03-13T04:12:45.661Z,9.10
2019-03-13T04:15:18.890Z,10.33
2019-03-13T04:17:51.618Z,8.83
2019-03-13T04:20:24.414Z,10.37
2019-03-13T04:22:57.199Z,10.07
2019-03-13T04:25:37.369Z,11.63
2019-03-13T04:28:10.193Z,10.10
2019-03-13T04:30:42.921Z,9.97
2019-03-13T04:33:15.922Z,5.63
2019-03-13T04:35:48.608Z,7.87
2019-03-13T04:38:21.445Z,13.77
2019-03-13T04:40:54.183Z,9.67
2019-03-13T04:43:27.117Z,7.83
2019-03-13T04:45:59.850Z,9.03
2019-03-13T04:48:32.599Z,9.00
2019-03-13T04:51:05.394Z,7.30
2019-03-13T04:53:38.156Z,7.07
2019-03-13T04:56:11.011Z,6.00
2019-03-13T04:58:43.822Z,9.77
2019-03-13T05:01:16.596Z,9.63
2019-03-13T05:03:49.388Z,9.27
2019-03-13T05:06:24.242Z,12.63
2019-03-13T05:09:21.644Z,9.90
2019-03-13T05:11:54.491Z,7.10
2019-03-13T05:14:27.441Z,8.30
2019-03-13T05:17:00.274Z,8.97
2019-03-13T05:19:33.070Z,12.00
2019-03-13T05:22:05.865Z,7.60
2019-03-13T05:24:38.577Z,7.90
2019-03-13T05:27:11.381Z,9.67
2019-03-13T05:29:44.282Z,10.83
2019-03-13T05:32:17.091Z,9.80
2019-03-13T05:34:49.960Z,10.20
2019-03-13T05:37:22.812Z,10.03
2019-03-13T05:39:55.582Z,9.40
2019-03-13T05:42:28.604Z,10.90
2019-03-13T05:45:01.797Z,7.23
2019-03-13T05:47:34.719Z,8.90
2019-03-13T05:50:07.908Z,13.38
2019-03-13T05:52:41.770Z,9.60
2019-03-13T05:55:14.812Z,6.57
2019-03-13T05:57:47.608Z,9.90
2019-03-13T06:00:21.257Z,9.08
2019-03-13T06:02:54.123Z,5.77
2019-03-13T06:05:27.017Z,6.73
2019-03-13T06:07:59.891Z,7.33
2019-03-13T06:10:32.874Z,5.67
2019-03-13T06:13:05.789Z,5.93
2019-03-13T06:15:38.614Z,5.90
2019-03-13T06:18:11.379Z,6.23
2019-03-13T06:20:44.123Z,6.67
2019-03-13T06:23:17.038Z,10.55
2019-03-13T06:25:50.032Z,6.12
2019-03-13T06:28:22.830Z,7.83
2019-03-13T06:30:55.544Z,7.07
2019-03-13T06:33:28.376Z,6.73
2019-03-13T06:36:01.225Z,10.00
2019-03-13T06:38:34.096Z,8.10
2019-03-13T06:41:07.014Z,11.60
2019-03-13T06:43:39.843Z,6.80
2019-03-13T06:46:12.663Z,9.53
2019-03-13T06:48:45.533Z,9.20
2019-03-13T06:51:18.256Z,8.77
2019-03-13T06:53:51.029Z,6.67
2019-03-13T06:56:23.984Z,7.97
2019-03-13T06:59:14.283Z,8.30
2019-03-13T07:02:04.563Z,9.83
2019-03-13T07:04:56.241Z,13.67
2019-03-13T07:07:46.703Z,8.03
2019-03-13T07:10:26.019Z,8.03
2019-03-13T07:13:14.991Z,6.70
2019-03-13T07:15:57.032Z,10.88
2019-03-13T07:18:42.272Z,5.83
2019-03-13T07:21:30.640Z,6.47
2019-03-13T07:24:21.002Z,5.17
2019-03-13T07:27:26.251Z,7.20
2019-03-13T07:30:22.429Z,8.43
2019-03-13T07:33:29.213Z,7.80
2019-03-13T07:36:15.608Z,6.73
2019-03-13T07:39:11.325Z,9.03
2019-03-13T07:42:05.991Z,10.90
2019-03-13T07:44:57.630Z,7.22
2019-03-13T07:47:41.497Z,25.10
2019-03-13T07:50:42.200Z,7.63
2019-03-13T07:53:45.875Z,8.07
2019-03-13T07:56:43.915Z,9.83
2019-03-13T07:59:48.151Z,6.72
2019-03-13T08:02:46.164Z,8.23
2019-03-13T08:05:41.200Z,7.80
2019-03-13T08:08:48.324Z,8.73
2019-03-13T08:11:34.399Z,39.67
2019-03-13T08:14:22.780Z,10.43
2019-03-13T08:17:02.313Z,7.23
2019-03-13T08:19:59.839Z,6.40
2019-03-13T08:22:50.307Z,7.20
2019-03-13T08:25:32.452Z,11.43
2019-03-13T08:28:16.600Z,7.20
2019-03-13T08:31:10.974Z,7.17
2019-03-13T08:34:09.871Z,6.37
2019-03-13T08:36:51.912Z,7.72
2019-03-13T08:39:46.549Z,7.10
2019-03-13T08:42:30.669Z,5.60
2019-03-13T08:45:19.883Z,8.33
2019-03-13T08:48:20.477Z,5.97
2019-03-13T08:51:12.020Z,7.15
2019-03-13T08:54:20.467Z,7.42
2019-03-13T08:57:22.885Z,4.50
2019-03-13T09:00:09.117Z,6.47
2019-03-13T09:02:52.440Z,6.75
2019-03-13T09:05:39.548Z,5.60
2019-03-13T09:08:37.205Z,4.97
2019-03-13T09:11:28.771Z,3.42
2019-03-13T09:14:23.311Z,6.50
2019-03-13T09:17:19.427Z,6.03
2019-03-13T09:20:13.744Z,5.42
2019-03-13T09:23:23.443Z,7.50
2019-03-13T09:26:11.513Z,6.10
2019-03-13T09:29:08.798Z,5.37
2019-03-13T09:32:00.490Z,6.45
2019-03-13T09:35:10.336Z,5.70
2019-03-13T09:38:20.067Z,6.70
2019-03-13T09:41:30.126Z,6.78
2019-03-13T09:44:21.809Z,6.28
2019-03-13T09:47:22.989Z,6.50
2019-03-13T09:50:26.731Z,8.65
2019-03-13T09:53:12.708Z,8.28
2019-03-13T09:56:04.449Z,4.37
2019-03-13T09:59:14.437Z,4.47
2019-03-13T10:02:08.891Z,7.75
2019-03-13T10:05:03.305Z,6.85
2019-03-13T10:08:03.823Z,9.15
2019-03-13T10:10:43.369Z,6.25
2019-03-13T10:13:50.151Z,3.10
2019-03-13T10:16:47.859Z,6.12
2019-03-13T10:19:43.167Z,4.97
2019-03-13T10:22:27.890Z,5.87
2019-03-13T10:25:08.780Z,6.28
2019-03-13T10:28:12.510Z,4.70
2019-03-13T10:31:08.282Z,5.30
2019-03-13T10:34:02.963Z,6.22
2019-03-13T10:37:06.634Z,5.70
2019-03-13T10:40:07.802Z,7.37
2019-03-13T10:43:02.332Z,6.70
2019-03-13T10:45:56.801Z,4.83
2019-03-13T10:49:03.652Z,5.78
2019-03-13T10:51:48.518Z,4.25
2019-03-13T10:54:28.215Z,7.60
2019-03-13T10:57:10.715Z,8.98
2019-03-13T10:59:49.345Z,4.45
2019-03-13T11:02:37.531Z,4.40
2019-03-13T11:05:30.073Z,5.20
2019-03-13T11:08:12.645Z,6.00
2019-03-13T11:10:53.438Z,5.22
2019-03-13T11:13:33.569Z,5.03
2019-03-13T11:16:27.988Z,4.40
2019-03-13T11:19:23.379Z,6.67
2019-03-13T11:22:08.716Z,8.15
2019-03-13T11:24:53.087Z,4.00
2019-03-13T11:27:43.784Z,10.35
2019-03-13T11:30:35.989Z,4.90
2019-03-13T11:33:33.902Z,7.08
2019-03-13T11:36:16.298Z,10.28
2019-03-13T11:39:04.024Z,4.40
2019-03-13T11:42:03.588Z,4.70
2019-03-13T11:44:58.637Z,3.77
2019-03-13T11:47:50.294Z,3.17
2019-03-13T11:50:28.629Z,4.05
2019-03-13T11:53:13.121Z,3.55
2019-03-13T11:56:07.517Z,5.97
2019-03-13T11:58:53.078Z,4.85
2019-03-13T12:01:47.688Z,4.35
2019-03-13T12:04:55.210Z,4.65
2019-03-13T12:07:46.856Z,4.78
2019-03-13T12:10:37.361Z,4.97
2019-03-13T12:13:23.584Z,2.37
2019-03-13T12:16:14.135Z,4.78
2019-03-13T12:19:06.433Z,3.70
2019-03-13T12:21:49.598Z,3.20
2019-03-13T12:24:30.037Z,4.12
2019-03-13T12:27:17.698Z,4.97
2019-03-13T12:30:04.152Z,4.45
2019-03-13T12:33:11.706Z,5.80
2019-03-13T12:36:49.534Z,9.20
2019-03-13T12:39:42.241Z,5.67
2019-03-13T12:42:34.112Z,4.90
2019-03-13T12:45:27.846Z,7.87
2019-03-13T12:48:16.661Z,4.65
2019-03-13T12:51:01.761Z,4.83
2019-03-13T12:53:44.180Z,4.25
2019-03-13T12:56:45.039Z,5.50
2019-03-13T12:59:48.645Z,3.50
2019-03-13T13:02:49.593Z,5.53
2019-03-13T13:05:41.114Z,5.75
2019-03-13T13:08:41.815Z,6.17
2019-03-13T13:11:48.564Z,4.35
2019-03-13T13:14:35.329Z,7.25
2019-03-13T13:17:34.096Z,2.35
2019-03-13T13:20:08.563Z,4.70
2019-03-13T13:22:41.504Z,3.00
2019-03-13T13:25:15.410Z,3.87
2019-03-13T13:27:48.272Z,5.60
2019-03-13T13:30:21.100Z,5.60
2019-03-13T13:32:53.889Z,4.25
2019-03-13T13:35:26.747Z,5.75
2019-03-13T13:37:59.636Z,3.70
2019-03-13T13:40:32.535Z,2.12
2019-03-13T13:43:05.313Z,3.50
2019-03-13T13:46:15.070Z,6.17
2019-03-13T13:48:48.292Z,3.12
2019-03-13T13:51:21.125Z,3.12
2019-03-13T13:53:55.799Z,2.52
2019-03-13T13:56:28.949Z,5.25
2019-03-13T13:59:01.737Z,3.90
2019-03-13T14:01:34.613Z,6.42
2019-03-13T14:04:07.473Z,5.17
2019-03-13T14:06:40.380Z,5.47
2019-03-13T14:09:13.304Z,5.62
2019-03-13T14:11:46.211Z,5.03
2019-03-13T14:14:19.129Z,5.30
2019-03-13T14:16:51.808Z,2.35
2019-03-13T14:19:24.712Z,4.05
2019-03-13T14:21:57.620Z,4.42
2019-03-13T14:24:30.561Z,4.83
2019-03-13T14:27:13.879Z,2.50
2019-03-13T14:29:38.890Z,5.60
2019-03-13T14:32:11.612Z,4.25
2019-03-13T14:34:44.499Z,3.98
2019-03-13T14:37:17.337Z,4.67
2019-03-13T14:39:50.134Z,3.45
2019-03-13T14:42:23.052Z,4.97
2019-03-13T14:44:55.764Z,3.17
2019-03-13T14:47:28.681Z,3.27
2019-03-13T14:50:02.996Z,4.28
2019-03-13T14:52:36.290Z,2.90
2019-03-13T14:55:10.754Z,4.35
2019-03-13T14:57:43.491Z,3.62
2019-03-13T15:00:17.778Z,4.25
2019-03-13T15:02:50.834Z,6.40
2019-03-13T15:05:23.639Z,4.80
2019-03-13T15:07:56.478Z,3.83
2019-03-13T15:10:30.306Z,6.22
2019-03-13T15:13:03.292Z,3.50
2019-03-13T15:15:36.432Z,3.60
2019-03-13T15:18:09.298Z,6.03
2019-03-13T15:20:42.109Z,4.10
2019-03-13T15:23:14.889Z,5.05
2019-03-13T15:25:48.716Z,11.83
2019-03-13T15:28:21.983Z,6.78
2019-03-13T15:30:54.871Z,8.00
2019-03-13T15:33:27.972Z,4.22
2019-03-13T15:36:00.806Z,4.80
2019-03-13T15:38:36.141Z,6.78
2019-03-13T15:41:11.406Z,4.35
2019-03-13T15:43:44.474Z,3.70
2019-03-13T15:46:17.434Z,6.75
2019-03-13T15:48:50.391Z,4.25
2019-03-13T15:51:23.110Z,4.28
2019-03-13T15:53:55.893Z,6.92
2019-03-13T15:56:31.496Z,2.98
2019-03-13T15:59:04.409Z,4.67
2019-03-13T16:01:37.303Z,6.15
2019-03-13T16:04:10.185Z,3.62
2019-03-13T16:06:42.960Z,6.55
2019-03-13T16:09:18.670Z,6.22
2019-03-13T16:11:51.471Z,4.42
2019-03-13T16:14:24.205Z,5.30
2019-03-13T16:16:57.363Z,5.45
2019-03-13T16:19:30.360Z,3.55
2019-03-13T16:22:05.671Z,4.62
2019-03-13T16:24:38.815Z,3.87
2019-03-13T16:27:11.767Z,5.10
2019-03-13T16:29:47.256Z,6.83
2019-03-13T16:32:20.762Z,6.70
2019-03-13T16:34:53.696Z,8.63
2019-03-13T16:37:28.147Z,9.33
2019-03-13T16:40:00.982Z,6.92
2019-03-13T16:42:34.038Z,10.90
2019-03-13T16:45:08.584Z,14.65
2019-03-13T16:47:41.547Z,25.62
2019-03-13T16:50:16.629Z,33.58
2019-03-13T16:52:49.649Z,28.40
2019-03-13T16:55:23.547Z,34.13
2019-03-13T16:57:56.369Z,26.10
2019-03-13T17:00:29.812Z,28.10
2019-03-13T17:03:02.894Z,28.73
2019-03-13T17:05:35.797Z,25.43
2019-03-13T17:08:08.732Z,26.33
2019-03-13T17:10:41.502Z,23.38
2019-03-13T17:13:14.361Z,31.45
2019-03-13T17:15:48.075Z,30.82
2019-03-13T17:18:21.065Z,34.83
2019-03-13T17:20:54.036Z,31.62
2019-03-13T17:23:27.813Z,27.30
2019-03-13T17:26:00.823Z,26.27
2019-03-13T17:28:34.064Z,23.00
2019-03-13T17:31:07.256Z,18.27
2019-03-13T17:33:40.086Z,18.02
2019-03-13T17:36:13.361Z,18.85
2019-03-13T17:38:46.406Z,17.57
2019-03-13T17:41:19.325Z,17.73
2019-03-13T17:43:52.279Z,17.35
2019-03-13T17:46:25.208Z,11.18
2019-03-13T17:48:58.298Z,16.85
2019-03-13T17:51:31.120Z,14.20
2019-03-13T17:54:04.426Z,13.08
2019-03-13T17:56:37.194Z,16.85
2019-03-13T17:59:11.316Z,26.30
2019-03-13T18:01:44.109Z,24.82
2019-03-13T18:04:16.924Z,29.18
2019-03-13T18:06:50.769Z,27.37
2019-03-13T18:09:24.728Z,28.35
2019-03-13T18:11:57.581Z,27.93
2019-03-13T18:14:32.176Z,32.80
2019-03-13T18:17:04.959Z,20.20
2019-03-13T18:19:38.005Z,24.98
2019-03-13T18:22:10.765Z,18.95
2019-03-13T18:24:43.615Z,22.10
2019-03-13T18:27:16.412Z,19.73
2019-03-13T18:29:50.309Z,22.82
2019-03-13T18:32:23.127Z,23.83
2019-03-13T18:34:55.892Z,24.05
2019-03-13T18:37:28.776Z,15.68
2019-03-13T18:40:01.611Z,25.95
2019-03-13T18:42:34.567Z,24.63
2019-03-13T18:45:11.126Z,25.05
2019-03-13T18:47:44.986Z,22.00
2019-03-13T18:50:18.024Z,27.35
2019-03-13T18:52:50.879Z,24.75
2019-03-13T18:55:24.207Z,23.12
2019-03-13T18:57:57.049Z,24.55
2019-03-13T19:00:31.113Z,24.43
2019-03-13T19:03:04.215Z,25.05
2019-03-13T19:05:37.039Z,22.48
2019-03-13T19:08:10.090Z,23.22
2019-03-13T19:10:43.419Z,17.73
2019-03-13T19:13:16.338Z,13.68
2019-03-13T19:15:49.209Z,16.80
2019-03-13T19:18:22.055Z,15.68
2019-03-13T19:20:54.822Z,16.23
2019-03-13T19:23:27.764Z,19.45
2019-03-13T19:26:00.785Z,17.80
2019-03-13T19:28:33.774Z,17.85
2019-03-13T19:31:07.818Z,16.77
2019-03-13T19:33:40.697Z,16.50
2019-03-13T19:36:13.460Z,14.18
2019-03-13T19:38:46.358Z,15.35
2019-03-13T19:41:19.157Z,15.18
2019-03-13T19:43:51.928Z,12.37
2019-03-13T19:46:24.857Z,12.00
2019-03-13T19:48:57.869Z,12.23
2019-03-13T19:51:30.703Z,14.60
2019-03-13T19:54:03.731Z,12.58
2019-03-13T19:56:36.694Z,15.55
2019-03-13T19:59:09.754Z,15.15
2019-03-13T20:01:42.596Z,13.13
2019-03-13T20:04:16.101Z,13.95
2019-03-13T20:06:52.097Z,15.05
2019-03-13T20:09:25.328Z,11.50
2019-03-13T20:11:58.317Z,13.68
2019-03-13T20:14:31.317Z,16.87
2019-03-13T20:17:05.070Z,17.95
2019-03-13T20:19:38.180Z,18.15
2019-03-13T20:22:10.941Z,18.67
2019-03-13T20:24:43.958Z,18.07
2019-03-13T20:27:16.956Z,17.20
2019-03-13T20:29:51.617Z,18.70
2019-03-13T20:32:24.659Z,15.25
2019-03-13T20:34:57.566Z,19.07
2019-03-13T20:37:30.356Z,14.60
2019-03-13T20:40:03.184Z,14.28
2019-03-13T20:42:37.556Z,16.07
2019-03-13T20:45:12.948Z,14.95
2019-03-13T20:47:46.178Z,15.85
2019-03-13T20:50:20.576Z,20.12
2019-03-13T20:52:53.565Z,18.20
2019-03-13T20:55:26.429Z,15.85
2019-03-13T20:57:59.528Z,15.95
2019-03-13T21:00:34.645Z,10.88
2019-03-13T21:03:07.676Z,15.13
2019-03-13T21:05:40.544Z,17.90
2019-03-13T21:08:13.800Z,18.02
2019-03-13T21:10:46.822Z,16.23
2019-03-13T21:13:19.713Z,19.85
2019-03-13T21:15:52.507Z,11.12
2019-03-13T21:18:25.367Z,16.05
2019-03-13T21:20:59.295Z,14.95
2019-03-13T21:23:32.059Z,10.95
2019-03-13T21:26:05.023Z,10.00
2019-03-13T21:28:37.905Z,10.20
2019-03-13T21:31:10.810Z,9.33
2019-03-13T21:33:44.602Z,10.67
2019-03-13T21:36:17.531Z,16.48
2019-03-13T21:38:51.447Z,10.78
2019-03-13T21:41:24.241Z,13.13
2019-03-13T21:43:57.069Z,11.15
2019-03-13T21:46:29.965Z,13.38
2019-03-13T21:49:03.111Z,14.15
2019-03-13T21:51:36.030Z,13.40
2019-03-13T21:54:08.923Z,14.60
2019-03-13T21:56:41.631Z,16.32
2019-03-13T21:59:18.556Z,18.55
2019-03-13T22:01:51.362Z,13.70
2019-03-13T22:04:26.143Z,17.00
2019-03-13T22:07:02.679Z,13.08
2019-03-13T22:09:37.622Z,18.48
2019-03-13T22:12:11.639Z,11.80
2019-03-13T22:14:46.639Z,11.15
2019-03-13T22:17:19.460Z,11.97
2019-03-13T22:19:53.687Z,5.33
2019-03-13T22:22:26.829Z,13.60
2019-03-13T22:24:59.528Z,11.73
2019-03-13T22:27:33.356Z,11.15
2019-03-13T22:30:07.647Z,7.05
2019-03-13T22:32:41.740Z,9.48
2019-03-13T22:35:14.514Z,13.85
2019-03-13T22:37:47.407Z,9.98
2019-03-13T22:40:20.917Z,10.50
2019-03-13T22:42:53.645Z,14.78
2019-03-13T22:45:26.572Z,12.80
2019-03-13T22:47:59.321Z,9.63
2019-03-13T22:50:33.289Z,10.65
2019-03-13T22:53:06.228Z,11.20
2019-03-13T22:55:41.037Z,9.28
2019-03-13T22:58:13.415Z,8.18
2019-03-13T23:01:00.446Z,10.65
2019-03-13T23:03:34.959Z,9.00
2019-03-13T23:06:09.242Z,11.55
2019-03-13T23:08:42.089Z,12.63
2019-03-13T23:11:16.094Z,13.48
2019-03-13T23:13:50.520Z,11.33
2019-03-13T23:16:23.989Z,7.45
2019-03-13T23:18:57.010Z,7.42
2019-03-13T23:21:29.913Z,12.18
2019-03-13T23:24:02.893Z,11.35
2019-03-13T23:26:35.984Z,9.90
2019-03-13T23:29:10.599Z,9.18
2019-03-13T23:31:43.442Z,10.90
2019-03-13T23:34:16.370Z,10.08
2019-03-13T23:36:50.462Z,9.78
2019-03-13T23:39:23.179Z,9.28
2019-03-13T23:41:58.018Z,11.28
2019-03-13T23:44:32.183Z,10.68
2019-03-13T23:47:05.106Z,9.58
2019-03-13T23:49:39.157Z,8.75
2019-03-13T23:52:12.232Z,8.15
